Strona główna
METAR-TAF:

METAR-TAF

Lotnisko :

Port lotniczy Kuressaare

Kuressaare, Estonia

Szerokość geograficzna: 58-13-48N, Długość geograficzna: 022-30-34E, wysokość: 4 m

Aktualna obserwacja pogody

Raport powstał 1 godzina i 1 minut temu, godzina 07:50 UTC
Wiatr 6 kt od wschód, zmienny między północny wschód i południowo-południowy wschód
Temperatura 27°C
Wilgotność 45%
Ciśnienie 1014 hPa
Widzialność 10 km lub więcej
Brak chmur poniżej 1500 m i brak chmur cumulonimbus

METAR: EEKE 160750Z 08006KT 050V150 CAVOK 27/14 Q1014

czas: 11:51 (08:51 UTC)

Prognoza

Raport powstał 3 godziny i 51 minut temu, godzina 05:00 UTC
Prognoza ważna od 16 godzina 06 UTC do 16 godzina 12 UTC
Wiatr 5 kt od północny wschód
Widzialność 10 km lub więcej
Brak chmur poniżej 1500 m i brak chmur cumulonimbus

TAF: EEKE 160500Z 1606/1612 05005KT CAVOK

Obserwacja i prognoza pogody dla ponad 4000 lotnisk (raport METAR i TAF).

Dostępne stacje oznaczono żółtymi i czerwonymi punktami na mapie.

Najedź kursorem aby zobaczyć nazwę stacji.

Kliknij aby zobaczyć obserwacje i prognozy pogody.

Aby zmienić mapę: kliknij na zielony przycisk z czarnym krzyżykiem, aby powiększyć; na zielony przycisk z myślnikiem, aby pomniejszyć; na zielone strzałki, aby przejść do map sąsiednich.


METAR-TAF: